Time;durP1;ratioP1;P1;durP2;ratioP2;P2;SDS_P1;SDS_P2;PMS_P1;PMS_P2;Temp;Humidity;BMP_temperature;BMP_pressure;BME280_temperature;BME280_humidity;BME280_pressure;Samples;Min_cycle;Max_cycle;Signal;HPM_P1;HPM_P2
2021/07/19 00:02:09;;;;;;;5.97;2.85;;;20.60;95.90;;;;;;5025937;28;20025;-72
2021/07/19 00:04:40;;;;;;;7.75;2.40;;;20.60;94.60;;;;;;5022365;28;20026;-74
2021/07/19 00:07:06;;;;;;;7.18;2.83;;;20.60;94.80;;;;;;5028934;28;20041;-73
2021/07/19 00:09:32;;;;;;;4.85;2.88;;;20.50;95.00;;;;;;5025114;28;20036;-73
2021/07/19 00:11:58;;;;;;;4.10;2.30;;;20.50;95.30;;;;;;5027226;28;20026;-73
2021/07/19 00:14:26;;;;;;;7.65;2.90;;;20.40;95.00;;;;;;5019791;28;20033;-74
2021/07/19 00:16:52;;;;;;;7.50;2.42;;;20.40;94.70;;;;;;5025430;28;20068;-73
2021/07/19 00:19:17;;;;;;;5.47;3.13;;;20.30;95.30;;;;;;5015442;28;20115;-72
2021/07/19 00:21:42;;;;;;;6.63;3.00;;;20.40;94.30;;;;;;5022690;28;20045;-72
2021/07/19 00:24:08;;;;;;;5.43;2.83;;;20.30;94.10;;;;;;5027940;28;20443;-73
2021/07/19 00:26:34;;;;;;;4.65;2.72;;;20.30;94.30;;;;;;5027703;28;20045;-73
2021/07/19 00:28:59;;;;;;;6.47;2.78;;;20.30;94.00;;;;;;5029001;28;20435;-73
2021/07/19 00:31:25;;;;;;;5.25;2.97;;;20.30;94.10;;;;;;5021262;28;20034;-72
2021/07/19 00:33:50;;;;;;;5.88;2.97;;;20.30;94.10;;;;;;5016255;28;20514;-72
2021/07/19 00:36:16;;;;;;;4.68;3.28;;;20.30;94.10;;;;;;5026769;28;20025;-73
2021/07/19 00:38:41;;;;;;;7.65;3.22;;;20.20;93.50;;;;;;5027731;28;20036;-73
2021/07/19 00:41:07;;;;;;;4.95;3.58;;;20.20;93.40;;;;;;5025198;28;20743;-73
2021/07/19 00:43:32;;;;;;;7.50;3.45;;;20.20;93.20;;;;;;5015944;28;20021;-73
2021/07/19 00:45:58;;;;;;;8.02;3.45;;;20.20;92.50;;;;;;5028886;28;20195;-72
2021/07/19 00:48:24;;;;;;;5.30;3.63;;;20.20;92.90;;;;;;5024154;28;20021;-73
2021/07/19 00:50:52;;;;;;;7.53;3.47;;;20.20;93.60;;;;;;5022637;28;20025;-73
2021/07/19 00:53:18;;;;;;;7.78;3.60;;;20.10;92.50;;;;;;5027997;28;20108;-72
2021/07/19 00:55:46;;;;;;;5.32;3.35;;;20.10;91.80;;;;;;5026359;28;20116;-72
2021/07/19 00:58:14;;;;;;;10.85;3.78;;;20.00;91.90;;;;;;5023550;28;20025;-73
2021/07/19 01:00:42;;;;;;;8.93;3.75;;;20.00;91.40;;;;;;5019186;28;20026;-73
2021/07/19 01:03:10;;;;;;;6.38;3.88;;;19.90;91.60;;;;;;5020660;28;20379;-73
2021/07/19 01:05:40;;;;;;;6.80;3.58;;;19.80;91.60;;;;;;5025452;28;20566;-72
2021/07/19 01:08:06;;;;;;;6.28;3.80;;;19.80;91.50;;;;;;5021040;28;20025;-73
2021/07/19 01:10:33;;;;;;;6.13;3.85;;;19.70;92.40;;;;;;5028241;28;20022;-73
2021/07/19 01:12:59;;;;;;;7.25;3.70;;;19.70;91.90;;;;;;5015176;28;20109;-73
2021/07/19 01:15:26;;;;;;;6.13;3.58;;;19.70;92.00;;;;;;5027860;28;20116;-73
2021/07/19 01:17:52;;;;;;;8.70;4.22;;;19.60;92.10;;;;;;5018950;28;20552;-73
2021/07/19 01:20:41;;;;;;;6.13;3.75;;;19.60;92.60;;;;;;5021740;28;20105;-73
2021/07/19 01:23:37;;;;;;;14.63;4.85;;;19.50;93.10;;;;;;5024605;28;20040;-73
2021/07/19 01:26:19;;;;;;;10.13;3.72;;;19.50;92.60;;;;;;5018147;28;20060;-73
2021/07/19 01:28:48;;;;;;;7.57;3.83;;;19.40;92.80;;;;;;5012657;28;20033;-72
2021/07/19 01:31:26;;;;;;;7.55;4.30;;;19.40;93.60;;;;;;5016716;28;20028;-73
2021/07/19 01:33:58;;;;;;;8.82;4.43;;;19.40;93.30;;;;;;5013738;28;20026;-73
2021/07/19 01:36:28;;;;;;;6.75;4.13;;;19.30;93.50;;;;;;5014786;28;20068;-73
2021/07/19 01:38:54;;;;;;;8.43;4.45;;;19.30;93.70;;;;;;5025793;28;20408;-73
2021/07/19 01:41:21;;;;;;;9.32;4.30;;;19.30;94.20;;;;;;5022808;28;20022;-73
2021/07/19 01:43:53;;;;;;;8.05;3.80;;;19.20;94.40;;;;;;5026149;28;20033;-72
2021/07/19 01:46:20;;;;;;;7.05;4.18;;;19.20;94.50;;;;;;5028069;28;20017;-73
2021/07/19 01:48:46;;;;;;;13.60;4.93;;;19.20;95.50;;;;;;5021407;28;20048;-72
2021/07/19 01:51:12;;;;;;;6.18;4.07;;;19.10;94.60;;;;;;5019400;28;20025;-73
2021/07/19 01:53:41;;;;;;;11.45;4.30;;;19.20;94.50;;;;;;5027829;28;20033;-73
2021/07/19 01:56:06;;;;;;;7.55;3.95;;;19.20;94.20;;;;;;5028361;28;20029;-72
2021/07/19 01:58:33;;;;;;;10.90;4.47;;;19.10;93.70;;;;;;5025987;28;20033;-73
2021/07/19 02:00:58;;;;;;;11.20;4.22;;;19.10;93.70;;;;;;5022078;28;20034;-73
2021/07/19 02:03:24;;;;;;;8.85;3.75;;;19.10;94.10;;;;;;5020275;28;20026;-73
2021/07/19 02:05:52;;;;;;;9.70;4.45;;;19.00;93.40;;;;;;5024895;28;20129;-73
2021/07/19 02:08:20;;;;;;;10.38;4.40;;;19.00;93.70;;;;;;5019284;28;20028;-72
2021/07/19 02:10:51;;;;;;;9.38;4.18;;;18.90;93.70;;;;;;5027719;28;20036;-73
2021/07/19 02:13:17;;;;;;;10.00;4.10;;;18.90;93.70;;;;;;5021702;28;20598;-73
2021/07/19 02:15:44;;;;;;;9.10;4.22;;;18.80;93.50;;;;;;5016537;28;20500;-73
2021/07/19 02:18:13;;;;;;;9.27;4.38;;;18.70;93.50;;;;;;5027384;28;20076;-73
2021/07/19 02:20:41;;;;;;;12.07;4.03;;;18.70;93.50;;;;;;5012909;28;20025;-73
2021/07/19 02:23:07;;;;;;;6.95;3.92;;;18.70;94.20;;;;;;5019465;28;20037;-73
2021/07/19 02:25:35;;;;;;;8.50;4.20;;;18.70;94.10;;;;;;5021278;28;20030;-73
2021/07/19 02:28:01;;;;;;;10.55;3.78;;;18.60;94.20;;;;;;5019785;28;20018;-73
2021/07/19 02:30:28;;;;;;;11.23;3.92;;;18.60;93.80;;;;;;5015493;28;20029;-73
2021/07/19 02:32:58;;;;;;;6.22;3.50;;;18.40;93.60;;;;;;5027306;28;20116;-73
2021/07/19 02:35:28;;;;;;;9.15;3.47;;;18.40;93.90;;;;;;5027962;28;20033;-73
2021/07/19 02:37:57;;;;;;;8.45;3.75;;;18.30;94.00;;;;;;5027034;28;20034;-72
2021/07/19 02:40:24;;;;;;;8.52;3.30;;;18.30;93.40;;;;;;5025145;28;20040;-73
2021/07/19 02:42:55;;;;;;;8.00;3.72;;;18.30;93.60;;;;;;5024958;28;20021;-72
2021/07/19 02:45:21;;;;;;;13.25;4.18;;;18.20;94.10;;;;;;5026360;28;20057;-72
2021/07/19 02:47:50;;;;;;;11.77;3.72;;;18.10;94.10;;;;;;5025660;28;20076;-73
2021/07/19 02:50:19;;;;;;;15.57;3.45;;;18.10;93.90;;;;;;5028853;28;20667;-73
2021/07/19 02:52:46;;;;;;;6.40;3.22;;;18.10;94.20;;;;;;5022695;28;20033;-72
2021/07/19 02:55:16;;;;;;;12.82;3.70;;;18.00;94.00;;;;;;5026662;28;20032;-73
2021/07/19 02:57:42;;;;;;;11.30;3.40;;;17.90;93.40;;;;;;5031725;28;20500;-72
2021/07/19 03:00:11;;;;;;;9.25;3.30;;;17.90;94.00;;;;;;5025817;28;20029;-72
2021/07/19 03:02:47;;;;;;;12.32;4.38;;;17.80;94.70;;;;;;5024578;28;20029;-73
2021/07/19 03:05:17;;;;;;;7.85;3.35;;;17.80;94.30;;;;;;5031398;28;20064;-72
2021/07/19 03:07:47;;;;;;;9.95;3.13;;;17.80;93.90;;;;;;5029151;28;20064;-72
2021/07/19 03:10:14;;;;;;;8.15;3.42;;;17.80;94.40;;;;;;5030793;28;20021;-73
2021/07/19 03:12:42;;;;;;;8.10;3.13;;;17.70;94.30;;;;;;5022617;28;20044;-73
2021/07/19 03:15:08;;;;;;;18.25;4.43;;;17.70;94.40;;;;;;5012856;28;20485;-73
2021/07/19 03:17:38;;;;;;;8.95;4.03;;;17.70;94.80;;;;;;5029910;28;20037;-73
2021/07/19 03:20:05;;;;;;;8.32;3.58;;;17.60;95.10;;;;;;5025294;28;20029;-73
2021/07/19 03:22:31;;;;;;;6.65;3.78;;;17.60;95.80;;;;;;5019744;28;20036;-72
2021/07/19 03:24:58;;;;;;;9.43;3.25;;;17.60;95.40;;;;;;5028204;28;20017;-72
2021/07/19 03:27:25;;;;;;;8.43;3.33;;;17.50;95.20;;;;;;5027689;28;20029;-72
2021/07/19 03:29:51;;;;;;;14.25;3.60;;;17.50;94.80;;;;;;5028040;28;20022;-73
2021/07/19 03:32:22;;;;;;;5.60;2.92;;;17.50;95.50;;;;;;5029980;28;20037;-73
2021/07/19 03:34:48;;;;;;;9.70;3.80;;;17.40;95.00;;;;;;5029137;28;20586;-73
2021/07/19 03:37:16;;;;;;;9.90;3.20;;;17.40;94.80;;;;;;5030002;28;20677;-72
2021/07/19 03:39:42;;;;;;;12.07;3.63;;;17.40;94.90;;;;;;5022121;28;20032;-72
2021/07/19 03:42:10;;;;;;;9.35;3.30;;;17.40;94.50;;;;;;5012358;28;20044;-73
2021/07/19 03:44:36;;;;;;;9.38;3.20;;;17.40;93.80;;;;;;5022212;28;20151;-73
2021/07/19 03:47:02;;;;;;;6.88;3.30;;;17.40;93.70;;;;;;5028852;28;20036;-72
2021/07/19 03:49:32;;;;;;;7.97;3.08;;;17.40;93.70;;;;;;5023094;28;20026;-72
2021/07/19 03:51:57;;;;;;;10.07;2.80;;;17.40;93.60;;;;;;5029895;28;20026;-73
2021/07/19 03:54:23;;;;;;;10.90;3.50;;;17.40;92.90;;;;;;5028516;28;20392;-72
2021/07/19 03:56:49;;;;;;;11.98;3.60;;;17.40;93.50;;;;;;5028393;28;20396;-73
2021/07/19 03:59:17;;;;;;;8.10;2.97;;;17.40;93.00;;;;;;5028259;28;20503;-72
2021/07/19 04:01:43;;;;;;;8.55;3.13;;;17.40;92.40;;;;;;5023308;28;20041;-72
2021/07/19 04:04:16;;;;;;;10.07;3.08;;;17.40;92.70;;;;;;5026765;28;20030;-73
2021/07/19 04:06:41;;;;;;;10.57;3.30;;;17.40;92.80;;;;;;5030674;28;20042;-72
2021/07/19 04:09:07;;;;;;;11.80;4.05;;;17.50;92.50;;;;;;5027225;28;20495;-72
2021/07/19 04:11:33;;;;;;;12.35;3.05;;;17.50;92.80;;;;;;5023788;28;20034;-73
2021/07/19 04:13:59;;;;;;;6.50;2.55;;;17.40;91.70;;;;;;5026081;28;20103;-72
2021/07/19 04:16:25;;;;;;;9.95;3.38;;;17.50;92.40;;;;;;5028603;28;20036;-73
2021/07/19 04:18:51;;;;;;;12.50;3.30;;;17.50;92.20;;;;;;5022072;28;20068;-73
2021/07/19 04:21:18;;;;;;;8.95;2.95;;;17.40;91.30;;;;;;5028540;28;20032;-72
2021/07/19 04:23:43;;;;;;;6.30;2.60;;;17.40;91.10;;;;;;5024951;28;20476;-73
2021/07/19 04:26:13;;;;;;;7.53;2.92;;;17.40;91.30;;;;;;5030522;28;20129;-72
2021/07/19 04:28:40;;;;;;;8.88;3.00;;;17.40;92.70;;;;;;5019818;28;20429;-73
2021/07/19 04:31:06;;;;;;;13.23;3.17;;;17.40;92.00;;;;;;5016652;28;20025;-72
2021/07/19 04:33:32;;;;;;;8.07;2.95;;;17.50;91.70;;;;;;5025186;28;20404;-72
2021/07/19 04:35:57;;;;;;;8.05;2.90;;;17.40;90.70;;;;;;5026449;28;20110;-72
2021/07/19 04:38:23;;;;;;;7.55;2.67;;;17.50;90.70;;;;;;5022972;28;20436;-72
2021/07/19 04:40:54;;;;;;;11.82;3.22;;;17.40;89.80;;;;;;5019780;28;20453;-73
2021/07/19 04:43:20;;;;;;;16.63;4.22;;;17.40;90.50;;;;;;5030271;28;20059;-73
2021/07/19 04:45:47;;;;;;;12.05;3.03;;;17.30;90.10;;;;;;5027352;28;20053;-72
2021/07/19 04:48:13;;;;;;;11.43;3.55;;;17.20;91.10;;;;;;5019391;28;20076;-72
2021/07/19 04:50:39;;;;;;;8.65;2.83;;;17.20;90.90;;;;;;5026424;28;20029;-72
2021/07/19 04:53:05;;;;;;;9.15;2.65;;;17.10;91.00;;;;;;5018578;28;20088;-73
2021/07/19 04:55:31;;;;;;;7.85;3.13;;;17.10;90.60;;;;;;5018423;28;20446;-73
2021/07/19 04:57:58;;;;;;;8.20;2.75;;;17.10;91.60;;;;;;5022468;28;20040;-73
2021/07/19 05:00:25;;;;;;;16.15;3.13;;;17.10;92.20;;;;;;5019169;28;20029;-73
2021/07/19 05:02:51;;;;;;;10.85;3.03;;;17.20;91.80;;;;;;5028869;28;20029;-72
2021/07/19 05:05:20;;;;;;;8.40;3.25;;;17.20;91.40;;;;;;5018004;28;20029;-73
2021/07/19 05:07:46;;;;;;;6.60;3.10;;;17.20;91.50;;;;;;5023827;28;20037;-73
2021/07/19 05:10:16;;;;;;;10.70;3.50;;;17.20;90.80;;;;;;5021246;28;20026;-72
2021/07/19 05:12:45;;;;;;;6.10;2.60;;;17.30;90.20;;;;;;5028309;28;20033;-72
2021/07/19 05:15:14;;;;;;;9.02;3.08;;;17.30;89.40;;;;;;5026945;28;20072;-73
2021/07/19 05:17:41;;;;;;;10.45;2.97;;;17.20;90.40;;;;;;5025709;28;20033;-73
2021/07/19 05:20:17;;;;;;;10.80;2.83;;;17.20;90.50;;;;;;5024379;28;20767;-73
2021/07/19 05:22:51;;;;;;;10.88;3.40;;;17.30;90.90;;;;;;5026051;28;20048;-73
2021/07/19 05:25:25;;;;;;;9.63;3.10;;;17.30;90.30;;;;;;5022548;28;20048;-73
2021/07/19 05:28:06;;;;;;;6.55;2.55;;;17.30;90.40;;;;;;5022284;28;20049;-73
2021/07/19 05:30:33;;;;;;;10.73;3.58;;;17.20;89.30;;;;;;5026388;28;20109;-73
2021/07/19 05:32:59;;;;;;;8.35;3.00;;;17.20;89.50;;;;;;5021459;28;20045;-73
2021/07/19 05:35:24;;;;;;;12.07;3.45;;;17.30;89.00;;;;;;5027636;28;20041;-73
2021/07/19 05:37:50;;;;;;;8.90;3.38;;;17.30;89.50;;;;;;5018772;28;20052;-73
2021/07/19 05:40:17;;;;;;;7.00;2.95;;;17.40;90.00;;;;;;5020469;28;20116;-73
2021/07/19 05:42:43;;;;;;;5.95;3.10;;;17.50;89.20;;;;;;5023079;28;20044;-73
2021/07/19 05:45:10;;;;;;;12.82;3.60;;;17.60;88.40;;;;;;5025183;28;20030;-73
2021/07/19 05:47:35;;;;;;;11.57;3.50;;;17.60;87.00;;;;;;5011410;28;20091;-73
2021/07/19 05:50:01;;;;;;;10.02;3.67;;;17.60;89.60;;;;;;5019581;28;20033;-73
2021/07/19 05:52:27;;;;;;;6.55;3.15;;;17.70;89.10;;;;;;5021563;28;20488;-73
2021/07/19 05:54:52;;;;;;;6.50;3.13;;;17.70;88.50;;;;;;5028474;28;20095;-73
2021/07/19 05:57:18;;;;;;;12.63;3.47;;;17.70;88.10;;;;;;5026488;28;21851;-73
2021/07/19 05:59:44;;;;;;;6.68;3.13;;;17.80;87.30;;;;;;5025431;28;20029;-73
2021/07/19 06:02:09;;;;;;;12.90;3.45;;;17.70;87.20;;;;;;5024374;28;20030;-72
2021/07/19 06:04:35;;;;;;;11.07;3.83;;;17.70;87.10;;;;;;5025588;28;20033;-74
2021/07/19 06:07:00;;;;;;;9.57;3.72;;;17.70;88.80;;;;;;5025742;28;20620;-73
2021/07/19 06:09:26;;;;;;;12.10;3.88;;;17.80;87.40;;;;;;5024051;28;20156;-73
2021/07/19 06:11:51;;;;;;;8.98;3.55;;;17.80;88.30;;;;;;5021474;28;20036;-73
2021/07/19 06:14:17;;;;;;;9.23;3.55;;;17.80;89.80;;;;;;5022954;28;20018;-73
2021/07/19 06:16:42;;;;;;;8.43;3.38;;;17.90;89.50;;;;;;5025694;28;20022;-73
2021/07/19 06:19:08;;;;;;;9.95;3.80;;;18.00;90.10;;;;;;5027422;28;20143;-73
2021/07/19 06:21:33;;;;;;;12.55;4.32;;;18.10;88.10;;;;;;5024097;28;20033;-73
2021/07/19 06:23:59;;;;;;;9.80;4.18;;;18.20;87.60;;;;;;5030379;28;20041;-73
2021/07/19 06:26:24;;;;;;;7.45;3.50;;;18.20;87.00;;;;;;5030765;28;20112;-73
2021/07/19 06:28:50;;;;;;;10.43;3.92;;;18.20;87.20;;;;;;5025753;28;20030;-73
2021/07/19 06:31:16;;;;;;;7.90;4.13;;;18.20;87.50;;;;;;5023450;28;20028;-74
2021/07/19 06:33:41;;;;;;;10.73;3.78;;;18.20;86.90;;;;;;5026238;28;20443;-73
2021/07/19 06:36:07;;;;;;;8.63;3.88;;;18.20;87.40;;;;;;5029109;28;20109;-73
2021/07/19 06:38:32;;;;;;;13.52;3.83;;;18.20;85.90;;;;;;5025908;28;20508;-72
2021/07/19 06:40:58;;;;;;;8.90;3.58;;;18.20;86.80;;;;;;5027914;28;20433;-73
2021/07/19 06:43:23;;;;;;;8.43;4.28;;;18.30;90.30;;;;;;5032287;28;20025;-72
2021/07/19 06:45:49;;;;;;;12.20;4.25;;;18.40;88.10;;;;;;5031915;28;20029;-73
2021/07/19 06:48:15;;;;;;;8.57;4.32;;;18.40;85.90;;;;;;5028739;28;20020;-73
2021/07/19 06:50:42;;;;;;;13.50;3.92;;;18.50;87.40;;;;;;5032343;28;20109;-74
2021/07/19 06:53:07;;;;;;;11.55;4.47;;;18.50;86.40;;;;;;5031284;28;20148;-73
2021/07/19 06:55:33;;;;;;;9.60;4.18;;;18.50;88.10;;;;;;5022361;28;20065;-74
2021/07/19 06:57:58;;;;;;;9.95;4.07;;;18.50;85.50;;;;;;5024857;28;20030;-73
2021/07/19 07:00:24;;;;;;;10.70;4.00;;;18.60;83.60;;;;;;5032022;28;20038;-75
2021/07/19 07:02:49;;;;;;;14.85;4.93;;;18.60;85.00;;;;;;5031739;28;20057;-73
2021/07/19 07:05:15;;;;;;;12.70;4.38;;;18.60;84.40;;;;;;5019445;28;20104;-73
2021/07/19 07:07:41;;;;;;;8.35;3.88;;;18.70;83.30;;;;;;5014820;28;20108;-74
2021/07/19 07:10:07;;;;;;;12.23;4.45;;;18.70;83.80;;;;;;5014990;28;20385;-74
2021/07/19 07:12:32;;;;;;;6.68;4.10;;;18.80;83.70;;;;;;5024143;28;20052;-73
2021/07/19 07:14:58;;;;;;;10.90;3.88;;;18.80;83.90;;;;;;5013015;28;20037;-73
2021/07/19 07:17:23;;;;;;;10.30;4.53;;;18.80;82.60;;;;;;5020486;28;20087;-73
2021/07/19 07:19:51;;;;;;;9.68;3.92;;;18.80;84.60;;;;;;5023096;28;20030;-74
2021/07/19 07:22:16;;;;;;;8.23;3.95;;;18.90;82.80;;;;;;5021726;28;20029;-74
2021/07/19 07:24:42;;;;;;;9.55;4.47;;;18.90;85.60;;;;;;5025212;28;20076;-74
2021/07/19 07:27:11;;;;;;;12.30;4.55;;;19.00;84.90;;;;;;5018284;28;20021;-74
2021/07/19 07:29:37;;;;;;;8.45;4.03;;;19.00;83.90;;;;;;5031536;28;20033;-74
2021/07/19 07:32:04;;;;;;;8.02;4.07;;;19.00;83.00;;;;;;5031309;28;20040;-73
2021/07/19 07:34:30;;;;;;;10.65;4.30;;;19.10;84.70;;;;;;5028944;28;20099;-74
2021/07/19 07:36:56;;;;;;;9.13;5.03;;;19.10;81.50;;;;;;5011609;28;20034;-74
2021/07/19 07:39:21;;;;;;;6.93;4.03;;;19.10;83.90;;;;;;5027300;28;20506;-73
2021/07/19 07:41:47;;;;;;;8.20;3.95;;;19.20;81.30;;;;;;5031250;28;20037;-73
2021/07/19 07:44:12;;;;;;;10.73;4.53;;;19.10;80.70;;;;;;5024781;28;20034;-73
2021/07/19 07:46:38;;;;;;;11.98;4.78;;;19.10;80.00;;;;;;5027960;28;20364;-74
2021/07/19 07:49:03;;;;;;;8.15;4.07;;;19.10;83.40;;;;;;5020945;28;20025;-75
2021/07/19 07:51:29;;;;;;;8.63;4.18;;;19.20;83.80;;;;;;5028126;28;20476;-73
2021/07/19 07:53:56;;;;;;;9.15;4.63;;;19.30;82.30;;;;;;5025684;28;20381;-76
2021/07/19 07:56:22;;;;;;;8.45;4.32;;;19.30;80.50;;;;;;5024452;28;20044;-73
2021/07/19 07:58:47;;;;;;;8.57;4.20;;;19.30;79.90;;;;;;5028038;28;20026;-73
2021/07/19 08:01:13;;;;;;;9.10;4.78;;;19.40;80.50;;;;;;5017267;28;20881;-73
2021/07/19 08:03:38;;;;;;;10.45;4.80;;;19.40;79.70;;;;;;5030291;28;20036;-74
2021/07/19 08:06:04;;;;;;;7.38;4.35;;;19.30;79.00;;;;;;5024592;28;20099;-73
2021/07/19 08:08:29;;;;;;;15.38;5.40;;;19.20;79.10;;;;;;5024252;28;20026;-74
2021/07/19 08:10:55;;;;;;;9.90;4.35;;;19.10;78.70;;;;;;5018724;28;20025;-73
2021/07/19 08:13:20;;;;;;;7.82;4.47;;;19.10;79.40;;;;;;5029803;28;20103;-73
2021/07/19 08:15:49;;;;;;;8.65;4.35;;;19.10;80.00;;;;;;5025379;28;20083;-74
2021/07/19 08:18:15;;;;;;;10.07;4.88;;;19.10;78.90;;;;;;5028417;28;20029;-73
2021/07/19 08:20:43;;;;;;;8.43;4.25;;;19.20;80.90;;;;;;5023341;28;20042;-73
2021/07/19 08:23:08;;;;;;;6.75;4.18;;;19.30;80.50;;;;;;5018758;28;20084;-74
2021/07/19 08:25:33;;;;;;;5.22;3.63;;;19.50;79.40;;;;;;5022511;28;20034;-73
2021/07/19 08:27:59;;;;;;;6.18;3.83;;;19.70;79.20;;;;;;5014881;28;20595;-74
2021/07/19 08:30:24;;;;;;;9.82;4.20;;;19.80;78.20;;;;;;5027717;28;20036;-74
2021/07/19 08:32:51;;;;;;;11.85;4.55;;;19.90;76.40;;;;;;5026181;28;20168;-78
2021/07/19 08:35:17;;;;;;;10.13;4.25;;;19.80;75.50;;;;;;5020404;28;20090;-73
2021/07/19 08:37:45;;;;;;;10.05;4.28;;;20.00;77.70;;;;;;5030132;28;20068;-75
2021/07/19 08:40:13;;;;;;;9.63;4.13;;;20.10;75.70;;;;;;5027747;28;20032;-73
2021/07/19 08:42:39;;;;;;;8.45;4.47;;;20.20;74.40;;;;;;5022434;28;20075;-71
2021/07/19 08:45:07;;;;;;;10.43;4.18;;;20.20;74.20;;;;;;5015334;28;20080;-71
2021/07/19 08:47:39;;;;;;;7.63;4.13;;;20.10;74.70;;;;;;5028199;28;20047;-74
2021/07/19 08:50:09;;;;;;;11.80;4.35;;;20.10;74.90;;;;;;5029682;28;20036;-72
2021/07/19 08:52:35;;;;;;;8.63;4.30;;;20.20;73.90;;;;;;5029215;28;20030;-72
2021/07/19 08:55:03;;;;;;;9.45;3.60;;;20.30;73.80;;;;;;5027221;28;20034;-72
2021/07/19 08:57:29;;;;;;;7.10;3.97;;;20.50;73.80;;;;;;5025418;28;20034;-72
2021/07/19 08:59:57;;;;;;;7.60;3.80;;;20.60;72.50;;;;;;5029484;28;20388;-72
2021/07/19 09:02:22;;;;;;;5.93;3.75;;;20.70;70.30;;;;;;5028838;28;20064;-72
2021/07/19 09:04:48;;;;;;;14.77;4.45;;;20.70;71.20;;;;;;5029027;28;20033;-72
2021/07/19 09:07:14;;;;;;;9.57;4.10;;;20.60;69.80;;;;;;5028906;28;20048;-72
2021/07/19 09:09:42;;;;;;;7.82;4.18;;;20.50;70.30;;;;;;5029721;28;20560;-73
2021/07/19 09:12:07;;;;;;;6.75;3.55;;;20.40;70.40;;;;;;5025579;28;20033;-75
2021/07/19 09:14:33;;;;;;;7.20;4.18;;;20.30;70.10;;;;;;5025165;28;20034;-71
2021/07/19 09:16:59;;;;;;;7.82;3.40;;;20.40;71.40;;;;;;5020411;28;20041;-75
2021/07/19 09:19:27;;;;;;;8.77;3.60;;;20.60;76.60;;;;;;5026015;28;20091;-72
2021/07/19 09:21:59;;;;;;;6.20;3.55;;;20.70;75.20;;;;;;5021254;28;20044;-72
2021/07/19 09:24:32;;;;;;;6.70;3.35;;;20.90;68.10;;;;;;5027453;28;20560;-73
2021/07/19 09:26:58;;;;;;;9.48;4.10;;;20.90;74.60;;;;;;5023219;28;20033;-74
2021/07/19 09:29:25;;;;;;;7.32;3.60;;;20.90;67.60;;;;;;5026949;28;20551;-73
2021/07/19 09:31:58;;;;;;;9.80;3.97;;;20.80;71.00;;;;;;5022418;28;20030;-73
2021/07/19 09:34:32;;;;;;;7.95;3.65;;;20.80;76.40;;;;;;5027393;28;20024;-73
2021/07/19 09:37:01;;;;;;;5.70;3.70;;;20.80;73.60;;;;;;5017494;28;20240;-74
2021/07/19 09:39:42;;;;;;;6.72;3.72;;;20.90;70.70;;;;;;5023519;28;20506;-73
2021/07/19 09:42:13;;;;;;;9.05;3.92;;;21.00;72.70;;;;;;5018361;28;20774;-73
2021/07/19 09:44:39;;;;;;;5.47;3.47;;;21.10;69.40;;;;;;5022084;28;20321;-73
2021/07/19 09:47:09;;;;;;;15.50;3.85;;;21.20;70.70;;;;;;5025136;28;20049;-73
2021/07/19 09:49:35;;;;;;;4.90;3.28;;;21.30;72.10;;;;;;5026876;28;20033;-73
2021/07/19 09:52:03;;;;;;;6.93;3.60;;;21.30;69.70;;;;;;5021562;28;20544;-72
2021/07/19 09:54:46;;;;;;;8.07;3.30;;;21.30;69.40;;;;;;5025596;28;20076;-72
2021/07/19 09:57:12;;;;;;;6.45;3.63;;;21.20;67.40;;;;;;5016268;28;20060;-71
2021/07/19 09:59:53;;;;;;;7.80;3.67;;;21.00;69.90;;;;;;5024815;28;20026;-72
2021/07/19 10:02:36;;;;;;;6.13;4.00;;;20.90;73.40;;;;;;5025938;28;20026;-72
2021/07/19 10:05:08;;;;;;;6.70;3.53;;;20.80;72.80;;;;;;5028463;28;20025;-72
2021/07/19 10:07:34;;;;;;;6.00;3.55;;;20.70;73.20;;;;;;5025312;28;20037;-73
2021/07/19 10:10:08;;;;;;;8.38;3.58;;;20.60;72.20;;;;;;5029906;28;20510;-72
2021/07/19 10:12:33;;;;;;;4.13;3.15;;;20.60;72.60;;;;;;5029254;28;20037;-73
2021/07/19 10:15:01;;;;;;;8.10;3.47;;;20.50;73.50;;;;;;5030099;28;20033;-73
2021/07/19 10:17:29;;;;;;;6.28;3.40;;;20.40;74.80;;;;;;5022641;28;20037;-73
2021/07/19 10:19:56;;;;;;;9.00;3.42;;;20.40;76.40;;;;;;5020890;28;20037;-74
2021/07/19 10:22:22;;;;;;;8.57;3.47;;;20.40;78.90;;;;;;5024857;28;20033;-75
2021/07/19 10:24:48;;;;;;;6.95;3.50;;;20.50;76.10;;;;;;5026166;28;20072;-74
2021/07/19 10:27:21;;;;;;;9.18;3.65;;;20.50;75.30;;;;;;5028241;28;20037;-73
2021/07/19 10:29:47;;;;;;;6.97;3.30;;;20.60;77.00;;;;;;5028589;28;20032;-74
2021/07/19 10:32:17;;;;;;;8.27;4.00;;;20.80;78.20;;;;;;5027448;28;20029;-74
2021/07/19 10:34:48;;;;;;;7.15;3.28;;;21.00;74.90;;;;;;5032999;28;20500;-72
2021/07/19 10:37:41;;;;;;;7.53;3.40;;;21.20;76.70;;;;;;5026004;28;20064;-73
2021/07/19 10:40:11;;;;;;;7.97;3.45;;;21.30;74.60;;;;;;5017825;28;20039;-73
2021/07/19 10:42:43;;;;;;;6.97;3.30;;;21.50;73.90;;;;;;5030397;28;20029;-73
2021/07/19 10:45:14;;;;;;;6.05;3.20;;;21.50;73.80;;;;;;5026682;28;20029;-73
2021/07/19 10:47:52;;;;;;;4.65;3.40;;;21.50;71.90;;;;;;5028391;28;20029;-72
2021/07/19 10:50:25;;;;;;;8.10;3.03;;;21.40;72.00;;;;;;5038650;28;20067;-71
2021/07/19 10:52:52;;;;;;;7.40;3.05;;;21.40;73.90;;;;;;5028133;28;20049;-72
2021/07/19 10:55:30;;;;;;;7.85;3.35;;;21.40;73.50;;;;;;5026717;28;20552;-72
2021/07/19 10:58:05;;;;;;;5.70;2.97;;;21.30;73.10;;;;;;5025141;28;20026;-72
2021/07/19 11:00:36;;;;;;;8.82;2.45;;;21.20;68.60;;;;;;5030729;28;20056;-74
2021/07/19 11:03:10;;;;;;;5.47;2.33;;;21.00;69.00;;;;;;5025570;28;20021;-72
2021/07/19 11:05:43;;;;;;;5.13;2.30;;;20.90;70.50;;;;;;5026278;28;20532;-73
2021/07/19 11:08:24;;;;;;;4.80;2.25;;;20.90;71.40;;;;;;5024970;28;20026;-73
2021/07/19 11:10:51;;;;;;;5.90;2.33;;;20.80;69.30;;;;;;5027488;28;20025;-73
2021/07/19 11:13:35;;;;;;;3.75;2.30;;;20.80;69.50;;;;;;5030080;28;20033;-73
2021/07/19 11:16:12;;;;;;;6.55;3.20;;;20.80;70.60;;;;;;5028448;28;20033;-73
2021/07/19 11:18:37;;;;;;;4.32;2.33;;;20.80;70.30;;;;;;5015382;28;20192;-72
2021/07/19 11:21:04;;;;;;;4.63;2.78;;;21.00;72.70;;;;;;5026103;28;20524;-72
2021/07/19 11:23:36;;;;;;;6.28;2.45;;;21.10;72.00;;;;;;5033070;28;20595;-72
2021/07/19 11:26:06;;;;;;;5.32;2.53;;;21.20;70.40;;;;;;5026053;28;20037;-72
2021/07/19 11:28:41;;;;;;;6.35;2.30;;;21.40;69.90;;;;;;5024048;28;20116;-72
2021/07/19 11:31:09;;;;;;;6.07;2.95;;;21.60;70.30;;;;;;5030019;28;20040;-73
2021/07/19 11:33:40;;;;;;;5.22;3.10;;;21.80;68.20;;;;;;5028041;28;20022;-73
2021/07/19 11:36:45;;;;;;;7.03;2.70;;;21.90;65.30;;;;;;5026249;28;20025;-73
2021/07/19 11:39:17;;;;;;;6.43;2.65;;;22.10;65.60;;;;;;5007563;28;20041;-73
2021/07/19 11:41:43;;;;;;;6.93;2.90;;;22.30;65.20;;;;;;5029232;28;20116;-75
2021/07/19 11:44:17;;;;;;;8.00;3.00;;;22.40;64.90;;;;;;5030382;28;20384;-72
2021/07/19 11:46:44;;;;;;;3.85;2.40;;;22.60;66.00;;;;;;5025856;28;20079;-72
2021/07/19 11:49:11;;;;;;;6.25;3.28;;;22.70;64.90;;;;;;5017995;28;20445;-72
2021/07/19 11:51:42;;;;;;;6.10;2.55;;;23.00;68.10;;;;;;5017690;28;20030;-72
2021/07/19 11:54:11;;;;;;;8.52;3.15;;;23.30;62.50;;;;;;5018611;28;20029;-72
2021/07/19 11:56:39;;;;;;;10.90;2.67;;;23.40;61.10;;;;;;5025843;28;20109;-73
2021/07/19 11:59:05;;;;;;;7.40;2.85;;;23.20;62.40;;;;;;5028374;28;20037;-72
2021/07/19 12:01:32;;;;;;;4.90;2.50;;;23.00;64.60;;;;;;5023065;28;20442;-72
2021/07/19 12:04:00;;;;;;;7.30;2.63;;;22.60;63.30;;;;;;5026057;28;20036;-73
2021/07/19 12:06:27;;;;;;;5.43;3.00;;;22.40;64.60;;;;;;5023193;28;20155;-73
2021/07/19 12:08:55;;;;;;;5.70;2.78;;;22.20;66.00;;;;;;5021865;28;20359;-74
2021/07/19 12:11:21;;;;;;;6.55;2.97;;;22.00;69.10;;;;;;5028626;28;20416;-72
2021/07/19 12:13:47;;;;;;;9.35;2.90;;;21.80;69.60;;;;;;5013624;28;20084;-72
2021/07/19 12:16:14;;;;;;;5.25;2.75;;;21.70;68.90;;;;;;5022918;28;20037;-73
2021/07/19 12:18:48;;;;;;;4.97;2.92;;;21.70;68.50;;;;;;5026271;28;20065;-72
2021/07/19 12:21:16;;;;;;;8.43;3.13;;;21.60;69.00;;;;;;5025090;28;20476;-72
2021/07/19 12:23:53;;;;;;;4.95;3.00;;;21.60;71.20;;;;;;5023277;28;20030;-72
2021/07/19 12:26:30;;;;;;;5.13;3.20;;;21.60;68.50;;;;;;5025186;28;20053;-71
2021/07/19 12:29:06;;;;;;;8.65;2.85;;;21.60;66.20;;;;;;5021769;28;20034;-72
2021/07/19 12:31:43;;;;;;;6.32;2.65;;;21.70;66.70;;;;;;5023291;28;20029;-72
2021/07/19 12:34:18;;;;;;;8.70;3.10;;;21.70;70.80;;;;;;5025150;28;20036;-71
2021/07/19 12:36:52;;;;;;;5.72;2.90;;;21.90;72.20;;;;;;5030360;28;20032;-72
2021/07/19 12:39:33;;;;;;;8.73;3.03;;;22.00;71.20;;;;;;5016433;28;20503;-72
2021/07/19 12:42:01;;;;;;;6.53;3.00;;;22.20;68.80;;;;;;5016465;28;20041;-72
2021/07/19 12:44:29;;;;;;;5.88;2.90;;;22.30;68.20;;;;;;5025843;28;20033;-72
2021/07/19 12:46:56;;;;;;;5.55;3.00;;;22.30;68.40;;;;;;5021729;28;20037;-74
2021/07/19 12:49:27;;;;;;;6.38;2.75;;;22.50;68.70;;;;;;5025878;28;20024;-69
2021/07/19 12:51:59;;;;;;;;;;;22.50;67.20;;;;;;5022849;28;20396;-69